Aérodrome :
LOGIN :

S'inscrire | Disclaimer

   EN    FR    IT 

 










Légende :    VFR   VFR Marginal   IFR   IFR Intensif   IFR Très Intensif
Visi : 
Plafond : 
>= 8 km
>= 3000ft
5 à 8 km
1000 à 3000 ft
1500m à 5 km
500 à 1000 ft
800 à 1500m
200 à 500 ft
< 800m
< 200 ft
Symboles :   Orages  Brouillard  Fortes neiges  Fortes précipitations  Vent > 20 kt
SIGMETs :   Divers  Orages  Givrage  Turbulence  Onde Orograph.  Cendres Volcan.






- Altitude de l'aérodrome : 659 ft
- Code IATA : LGG


EBLG - Liège

DERNIER METAR :
  • 100420Z 22018KT CAVOK 16/12 Q1001 NOSIG

METARs EXPIRÉS :
  • 100350Z 22027G37KT 9999 -SHRA NSC 18/10 Q1001 TEMPO 22022G37KT 4000 SHRA
  • 100320Z 19013KT 160V220 CAVOK 19/08 Q1000 TEMPO 4000 SHRA
  • 100250Z 19018G28KT CAVOK 20/08 Q1000 NOSIG
  • 100220Z 19017G28KT CAVOK 20/09 Q0999 NOSIG
  • 100150Z 19019G31KT CAVOK 20/08 Q0999 NOSIG

TAF TAF EBLG
Valide du 10 à 00h jusqu'au 11 à 06h UTC


092320Z 1000/1106 17005KT CAVOK
BECMG 1004/1006 20016G27KT
BECMG 1008/1010 21012KT
PROB30
TEMPO 1008/1012 4000 SHRA BKN014TCU
PROB30
TEMPO 1019/1023 14006KT



MET'MAP, la Météo Aéronautique d'un coup d'oeil ! - Copyright ORBIFLY Décembre 2007 - Disclaimer

ORBIFLY MET'MAP TEAM :

Programmation & Développement : Alexandra Zaïnal
Sur une idée originale de : Baudouin d'Aumeries
Assistance à la programmation : Marc-Olivier Méhu
Soutien technique & logistique : Manuel Goepfert

Contact : metmap@orbifly.com




SOURCES & CREDITS :

   NOAA